createdAt,value
2022-11-05T00:01:09.988Z,19.42
2022-11-05T00:02:30.104Z,15.90
2022-11-05T00:03:50.378Z,17.63
2022-11-05T00:05:11.889Z,17.63
2022-11-05T00:06:32.206Z,16.45
2022-11-05T00:07:57.125Z,22.58
2022-11-05T00:09:17.364Z,17.05
2022-11-05T00:10:23.160Z,22.45
2022-11-05T00:11:44.791Z,14.82
2022-11-05T00:13:05.127Z,15.35
2022-11-05T00:14:25.283Z,17.25
2022-11-05T00:15:45.201Z,16.92
2022-11-05T00:16:47.699Z,18.25
2022-11-05T00:17:49.223Z,17.52
2022-11-05T00:19:05.786Z,13.85
2022-11-05T00:20:13.375Z,18.58
2022-11-05T00:21:29.786Z,20.48
2022-11-05T00:22:51.900Z,17.40
2022-11-05T00:24:12.232Z,19.77
2022-11-05T00:25:17.778Z,24.83
2022-11-05T00:26:19.263Z,18.98
2022-11-05T00:27:21.725Z,16.77
2022-11-05T00:28:24.324Z,16.10
2022-11-05T00:29:25.820Z,19.48
2022-11-05T00:30:29.018Z,17.30
2022-11-05T00:31:32.218Z,15.07
2022-11-05T00:32:34.826Z,19.98
2022-11-05T00:33:37.846Z,17.27
2022-11-05T00:34:39.359Z,20.13
2022-11-05T00:35:43.995Z,14.77
2022-11-05T00:36:46.025Z,16.70
2022-11-05T00:37:50.336Z,17.02
2022-11-05T00:38:52.175Z,13.65
2022-11-05T00:39:54.710Z,13.93
2022-11-05T00:40:57.251Z,16.15
2022-11-05T00:42:17.513Z,17.48
2022-11-05T00:43:37.755Z,12.95
2022-11-05T00:44:57.944Z,19.23
2022-11-05T00:46:00.443Z,16.13
2022-11-05T00:47:16.872Z,19.05
2022-11-05T00:48:36.919Z,16.15
2022-11-05T00:49:38.605Z,18.95
2022-11-05T00:50:41.258Z,16.67
2022-11-05T00:51:44.112Z,20.23
2022-11-05T00:52:57.018Z,17.73
2022-11-05T00:53:59.730Z,21.95
2022-11-05T00:55:01.252Z,18.00
2022-11-05T00:56:04.126Z,19.63
2022-11-05T00:57:06.008Z,17.88
2022-11-05T00:58:10.441Z,17.55
2022-11-05T00:59:11.926Z,15.23
2022-11-05T01:00:15.628Z,16.17
2022-11-05T01:01:18.229Z,17.77
2022-11-05T01:02:19.943Z,17.73
2022-11-05T01:03:24.807Z,15.55
2022-11-05T01:04:26.466Z,17.13
2022-11-05T01:05:30.749Z,16.83
2022-11-05T01:06:32.241Z,20.02
2022-11-05T01:07:36.086Z,18.77
2022-11-05T01:08:38.810Z,15.93
2022-11-05T01:09:40.295Z,18.33
2022-11-05T01:10:43.360Z,17.75
2022-11-05T01:11:45.986Z,16.85
2022-11-05T01:12:48.586Z,14.70
2022-11-05T01:13:51.107Z,17.90
2022-11-05T01:14:52.690Z,19.13
2022-11-05T01:15:57.468Z,13.50
2022-11-05T01:16:59.068Z,20.42
2022-11-05T01:18:01.537Z,12.25
2022-11-05T01:19:04.496Z,14.52
2022-11-05T01:20:07.396Z,16.48
2022-11-05T01:21:15.671Z,14.73
2022-11-05T01:22:17.201Z,20.63
2022-11-05T01:23:21.471Z,16.40
2022-11-05T01:24:23.404Z,15.35
2022-11-05T01:25:26.283Z,15.95
2022-11-05T01:26:27.887Z,16.27
2022-11-05T01:27:30.778Z,19.13
2022-11-05T01:28:33.283Z,18.23
2022-11-05T01:29:35.112Z,19.33
2022-11-05T01:30:38.320Z,17.00
2022-11-05T01:31:39.839Z,16.50
2022-11-05T01:32:42.322Z,21.30
2022-11-05T01:33:44.774Z,13.73
2022-11-05T01:34:47.328Z,13.07
2022-11-05T01:35:51.639Z,14.30
2022-11-05T01:36:54.119Z,17.58
2022-11-05T01:37:55.770Z,15.63
2022-11-05T01:38:59.550Z,15.63
2022-11-05T01:40:01.161Z,16.65
2022-11-05T01:41:04.176Z,25.05
2022-11-05T01:42:14.267Z,21.13
2022-11-05T01:43:18.797Z,17.73
2022-11-05T01:44:52.196Z,20.73
2022-11-05T01:45:59.211Z,22.40
2022-11-05T01:47:01.216Z,21.23
2022-11-05T01:48:09.634Z,25.65
2022-11-05T01:49:17.168Z,27.25
2022-11-05T01:50:29.940Z,19.02
2022-11-05T01:51:32.060Z,21.02
2022-11-05T01:52:35.941Z,21.42
2022-11-05T01:53:42.202Z,23.67
2022-11-05T01:54:47.358Z,26.08
2022-11-05T01:55:54.483Z,24.13
2022-11-05T01:57:00.902Z,25.17
2022-11-05T01:58:04.047Z,25.08
2022-11-05T01:59:11.141Z,34.40
2022-11-05T02:00:13.670Z,30.95
2022-11-05T02:01:18.119Z,35.70
2022-11-05T02:02:20.198Z,31.80
2022-11-05T02:03:23.593Z,35.05
2022-11-05T02:04:30.501Z,34.22
2022-11-05T02:05:34.754Z,33.70
2022-11-05T02:06:39.717Z,34.65
2022-11-05T02:07:44.716Z,32.30
2022-11-05T02:08:56.100Z,38.97
2022-11-05T02:10:03.913Z,32.05
2022-11-05T02:11:05.603Z,41.38
2022-11-05T02:12:09.318Z,38.17
2022-11-05T02:13:11.014Z,42.55
2022-11-05T02:14:13.737Z,45.42
2022-11-05T02:15:17.450Z,53.35
2022-11-05T02:16:35.931Z,56.70
2022-11-05T02:17:46.592Z,60.30
2022-11-05T02:19:00.031Z,60.38
2022-11-05T02:20:14.018Z,57.55
2022-11-05T02:21:35.259Z,55.85
2022-11-05T02:23:19.700Z,50.60
2022-11-05T02:24:46.919Z,43.28
2022-11-05T02:26:13.503Z,45.03
2022-11-05T02:27:21.730Z,38.63
2022-11-05T02:28:53.200Z,35.63
2022-11-05T02:30:33.190Z,33.00
2022-11-05T02:31:40.790Z,24.92
2022-11-05T02:33:11.037Z,24.13
2022-11-05T02:34:25.272Z,21.35
2022-11-05T02:35:48.840Z,32.45
2022-11-05T02:36:57.987Z,18.38
2022-11-05T02:38:08.527Z,17.40
2022-11-05T02:39:28.556Z,15.27
2022-11-05T02:40:40.898Z,13.52
2022-11-05T02:41:52.403Z,14.55
2022-11-05T02:43:03.030Z,17.40
2022-11-05T02:44:18.255Z,14.35
2022-11-05T02:45:33.005Z,16.40
2022-11-05T02:46:46.519Z,15.02
2022-11-05T02:47:51.923Z,14.60
2022-11-05T02:49:00.746Z,15.88
2022-11-05T02:50:10.834Z,15.25
2022-11-05T02:51:20.343Z,12.48
2022-11-05T02:52:29.122Z,15.00
2022-11-05T02:53:41.633Z,14.05
2022-11-05T02:54:47.335Z,12.80
2022-11-05T02:55:55.491Z,18.77
2022-11-05T02:56:59.125Z,14.23
2022-11-05T02:58:04.142Z,11.93
2022-11-05T02:59:05.823Z,12.57
2022-11-05T03:00:41.503Z,14.20
2022-11-05T03:01:46.556Z,13.05
2022-11-05T03:02:48.239Z,10.77
2022-11-05T03:03:53.955Z,12.77
2022-11-05T03:04:55.701Z,20.30
2022-11-05T03:06:11.537Z,15.85
2022-11-05T03:07:29.601Z,15.88
2022-11-05T03:08:41.382Z,15.48
2022-11-05T03:10:10.318Z,15.30
2022-11-05T03:11:15.611Z,16.10
2022-11-05T03:12:29.881Z,17.45
2022-11-05T03:13:39.680Z,15.05
2022-11-05T03:14:51.326Z,12.50
2022-11-05T03:16:00.046Z,12.85
2022-11-05T03:17:10.257Z,14.23
2022-11-05T03:18:15.871Z,18.95
2022-11-05T03:19:28.931Z,14.75
2022-11-05T03:20:35.388Z,15.15
2022-11-05T03:21:47.095Z,15.18
2022-11-05T03:22:53.758Z,11.27
2022-11-05T03:24:00.021Z,11.40
2022-11-05T03:25:05.715Z,13.80
2022-11-05T03:26:17.453Z,15.50
2022-11-05T03:27:23.759Z,17.05
2022-11-05T03:28:30.613Z,16.23
2022-11-05T03:29:37.307Z,12.50
2022-11-05T03:30:41.893Z,16.58
2022-11-05T03:31:48.371Z,11.95
2022-11-05T03:32:55.656Z,14.00
2022-11-05T03:33:59.855Z,22.52
2022-11-05T03:35:04.780Z,13.45
2022-11-05T03:36:11.605Z,18.10
2022-11-05T03:37:15.457Z,14.25
2022-11-05T03:38:21.702Z,17.13
2022-11-05T03:39:30.652Z,14.75
2022-11-05T03:40:35.961Z,13.48
2022-11-05T03:41:43.134Z,12.10
2022-11-05T03:42:49.828Z,15.13
2022-11-05T03:43:57.255Z,17.35
2022-11-05T03:45:02.733Z,17.58
2022-11-05T03:46:10.505Z,18.42
2022-11-05T03:47:17.210Z,15.98
2022-11-05T03:48:23.238Z,17.38
2022-11-05T03:49:27.712Z,16.98
2022-11-05T03:50:41.300Z,19.17
2022-11-05T03:51:49.367Z,82.53
2022-11-05T03:52:55.289Z,27.50
2022-11-05T03:53:59.635Z,21.10
2022-11-05T03:55:02.174Z,14.52
2022-11-05T03:56:10.400Z,18.60
2022-11-05T03:57:20.015Z,14.52
2022-11-05T03:58:23.338Z,19.88
2022-11-05T03:59:26.980Z,17.67
2022-11-05T04:00:28.487Z,17.17
2022-11-05T04:01:31.389Z,13.55
2022-11-05T04:02:34.545Z,14.77
2022-11-05T04:03:37.106Z,12.88
2022-11-05T04:04:39.119Z,14.85
2022-11-05T04:05:41.831Z,14.18
2022-11-05T04:07:01.800Z,16.88
2022-11-05T04:08:22.263Z,13.13
2022-11-05T04:09:42.568Z,17.63
2022-11-05T04:11:02.955Z,13.73
2022-11-05T04:12:24.000Z,11.93
2022-11-05T04:13:26.706Z,19.42
2022-11-05T04:14:28.298Z,13.50
2022-11-05T04:15:31.003Z,10.75
2022-11-05T04:16:50.853Z,13.95
2022-11-05T04:17:55.417Z,17.50
2022-11-05T04:18:56.939Z,14.68
2022-11-05T04:20:16.887Z,14.68
2022-11-05T04:21:37.117Z,15.95
2022-11-05T04:22:57.447Z,14.13
2022-11-05T04:24:09.303Z,15.48
2022-11-05T04:25:12.827Z,13.70
2022-11-05T04:26:14.393Z,12.25
2022-11-05T04:27:17.104Z,12.45
2022-11-05T04:28:18.613Z,20.15
2022-11-05T04:29:38.666Z,18.90
2022-11-05T04:30:44.121Z,25.35
2022-11-05T04:31:45.643Z,22.50
2022-11-05T04:33:06.786Z,18.48
2022-11-05T04:34:08.322Z,15.27
2022-11-05T04:35:10.797Z,12.75
2022-11-05T04:36:13.218Z,22.58
2022-11-05T04:37:15.706Z,15.68
2022-11-05T04:38:19.722Z,14.85
2022-11-05T04:39:21.559Z,16.30
2022-11-05T04:40:24.491Z,15.55
2022-11-05T04:41:26.434Z,22.58
2022-11-05T04:42:29.276Z,16.75
2022-11-05T04:43:30.820Z,16.73
2022-11-05T04:44:33.382Z,15.32
2022-11-05T04:45:35.865Z,16.25
2022-11-05T04:46:38.409Z,16.30
2022-11-05T04:47:39.939Z,21.48
2022-11-05T04:48:43.842Z,18.42
2022-11-05T04:49:45.379Z,16.27
2022-11-05T04:50:48.136Z,16.75
2022-11-05T04:51:49.651Z,18.88
2022-11-05T04:52:52.160Z,21.38
2022-11-05T04:53:54.121Z,14.00
2022-11-05T04:54:56.691Z,27.10
2022-11-05T04:56:09.037Z,19.52
2022-11-05T04:57:12.135Z,21.90
2022-11-05T04:58:13.680Z,20.25
2022-11-05T04:59:16.157Z,19.85
2022-11-05T05:00:18.556Z,22.45
2022-11-05T05:01:23.536Z,21.75
2022-11-05T05:02:25.245Z,21.40
2022-11-05T05:03:27.719Z,20.65
2022-11-05T05:04:30.576Z,25.13
2022-11-05T05:05:33.145Z,24.63
2022-11-05T05:06:34.767Z,22.60
2022-11-05T05:07:37.416Z,21.50
2022-11-05T05:08:38.967Z,19.88
2022-11-05T05:09:41.507Z,25.00
2022-11-05T05:10:43.035Z,25.08
2022-11-05T05:11:45.609Z,23.13
2022-11-05T05:12:48.367Z,20.58
2022-11-05T05:13:51.242Z,22.45
2022-11-05T05:14:52.951Z,24.40
2022-11-05T05:15:55.487Z,23.02
2022-11-05T05:16:56.982Z,24.85
2022-11-05T05:17:59.650Z,21.05
2022-11-05T05:19:01.181Z,23.20
2022-11-05T05:20:23.265Z,25.15
2022-11-05T05:21:40.954Z,24.10
2022-11-05T05:22:42.618Z,21.55
2022-11-05T05:23:47.169Z,24.05
2022-11-05T05:24:52.524Z,20.38
2022-11-05T05:25:55.515Z,22.40
2022-11-05T05:26:57.016Z,21.63
2022-11-05T05:28:00.729Z,24.58
2022-11-05T05:29:02.338Z,27.27
2022-11-05T05:30:05.535Z,23.20
2022-11-05T05:31:07.065Z,24.92
2022-11-05T05:32:09.681Z,29.92
2022-11-05T05:33:11.470Z,24.00
2022-11-05T05:34:15.560Z,25.60
2022-11-05T05:35:18.533Z,22.48
2022-11-05T05:36:21.602Z,24.60
2022-11-05T05:37:24.091Z,27.75
2022-11-05T05:38:25.762Z,33.17
2022-11-05T05:39:28.247Z,24.35
2022-11-05T05:40:29.724Z,27.50
2022-11-05T05:41:32.474Z,27.15
2022-11-05T05:42:38.755Z,28.08
2022-11-05T05:43:44.446Z,27.42
2022-11-05T05:44:45.983Z,22.92
2022-11-05T05:45:51.428Z,27.20
2022-11-05T05:46:53.861Z,24.60
2022-11-05T05:47:56.856Z,24.30
2022-11-05T05:48:58.435Z,22.85
2022-11-05T05:50:00.908Z,30.45
2022-11-05T05:51:05.777Z,22.77
2022-11-05T05:52:08.297Z,25.30
2022-11-05T05:53:10.172Z,30.52
2022-11-05T05:54:13.015Z,30.00
2022-11-05T05:55:15.242Z,26.50
2022-11-05T05:56:20.423Z,22.75
2022-11-05T05:57:22.157Z,26.05
2022-11-05T05:58:26.741Z,24.42
2022-11-05T05:59:28.328Z,20.48
2022-11-05T06:00:31.031Z,29.50
2022-11-05T06:01:33.297Z,26.13
2022-11-05T06:02:35.973Z,26.50
2022-11-05T06:03:37.634Z,26.05
2022-11-05T06:04:40.206Z,22.83
2022-11-05T06:05:45.743Z,23.83
2022-11-05T06:06:49.740Z,22.30
2022-11-05T06:07:55.497Z,25.55
2022-11-05T06:08:58.001Z,27.60
2022-11-05T06:09:59.538Z,27.38
2022-11-05T06:11:03.185Z,27.73
2022-11-05T06:12:05.426Z,26.05
2022-11-05T06:13:08.250Z,24.38
2022-11-05T06:14:11.175Z,29.15
2022-11-05T06:15:13.632Z,25.20
2022-11-05T06:16:15.207Z,25.25
2022-11-05T06:17:17.700Z,21.52
2022-11-05T06:18:19.889Z,30.58
2022-11-05T06:19:22.441Z,29.60
2022-11-05T06:20:23.981Z,24.05
2022-11-05T06:21:26.445Z,25.67
2022-11-05T06:22:29.316Z,25.27
2022-11-05T06:23:32.591Z,29.00
2022-11-05T06:24:34.182Z,24.95
2022-11-05T06:25:40.997Z,27.10
2022-11-05T06:26:44.951Z,24.73
2022-11-05T06:27:46.534Z,25.90
2022-11-05T06:28:49.010Z,27.98
2022-11-05T06:29:50.815Z,22.20
2022-11-05T06:30:53.334Z,23.00
2022-11-05T06:31:54.836Z,23.83
2022-11-05T06:32:57.314Z,23.27
2022-11-05T06:33:58.979Z,23.88
2022-11-05T06:35:01.475Z,24.70
2022-11-05T06:36:04.015Z,27.58
2022-11-05T06:37:06.487Z,22.05
2022-11-05T06:38:09.354Z,24.23
2022-11-05T06:39:12.265Z,26.75
2022-11-05T06:40:13.776Z,24.70
2022-11-05T06:41:20.648Z,30.25
2022-11-05T06:42:22.211Z,23.70
2022-11-05T06:43:24.710Z,24.42
2022-11-05T06:44:26.243Z,23.20
2022-11-05T06:45:28.728Z,26.33
2022-11-05T06:46:30.408Z,27.98
2022-11-05T06:47:32.877Z,23.48
2022-11-05T06:48:35.531Z,24.73
2022-11-05T06:49:37.332Z,21.52
2022-11-05T06:50:39.808Z,19.00
2022-11-05T06:51:41.299Z,26.55
2022-11-05T06:52:43.755Z,21.65
2022-11-05T06:53:47.570Z,24.75
2022-11-05T06:54:49.412Z,24.50
2022-11-05T06:55:52.130Z,22.40
2022-11-05T06:56:54.780Z,22.48
2022-11-05T06:57:58.831Z,22.52
2022-11-05T06:59:01.392Z,36.60
2022-11-05T07:00:07.801Z,28.25
2022-11-05T07:01:11.672Z,25.75
2022-11-05T07:02:13.484Z,23.67
2022-11-05T07:03:16.110Z,26.25
2022-11-05T07:04:17.636Z,26.77
2022-11-05T07:05:20.187Z,26.10
2022-11-05T07:06:22.658Z,25.35
2022-11-05T07:07:24.313Z,25.20
2022-11-05T07:08:26.962Z,25.33
2022-11-05T07:09:30.064Z,29.70
2022-11-05T07:10:32.939Z,25.17
2022-11-05T07:11:40.382Z,25.60
2022-11-05T07:12:43.142Z,26.27
2022-11-05T07:13:44.642Z,31.40
2022-11-05T07:14:47.194Z,28.45
2022-11-05T07:15:48.792Z,20.75
2022-11-05T07:16:51.291Z,23.50
2022-11-05T07:17:57.209Z,23.27
2022-11-05T07:18:59.765Z,24.45
2022-11-05T07:20:01.328Z,26.67
2022-11-05T07:21:04.230Z,24.20
2022-11-05T07:22:05.699Z,24.75
2022-11-05T07:23:12.128Z,23.00
2022-11-05T07:24:15.174Z,17.83
2022-11-05T07:25:19.002Z,30.55
2022-11-05T07:26:20.571Z,24.05
2022-11-05T07:27:23.134Z,20.85
2022-11-05T07:28:24.667Z,26.58
2022-11-05T07:29:27.130Z,21.27
2022-11-05T07:30:29.587Z,24.63
2022-11-05T07:31:32.064Z,24.65
2022-11-05T07:32:37.323Z,20.77
2022-11-05T07:33:39.804Z,27.42
2022-11-05T07:34:41.392Z,27.55
2022-11-05T07:35:44.182Z,25.08
2022-11-05T07:36:46.709Z,19.55
2022-11-05T07:37:50.512Z,28.45
2022-11-05T07:38:57.391Z,23.10
2022-11-05T07:40:01.587Z,24.25
2022-11-05T07:41:05.669Z,23.65
2022-11-05T07:42:07.209Z,23.35
2022-11-05T07:43:10.213Z,22.63
2022-11-05T07:44:14.213Z,19.85
2022-11-05T07:45:17.773Z,22.35
2022-11-05T07:46:20.269Z,22.38
2022-11-05T07:47:21.798Z,31.63
2022-11-05T07:48:24.304Z,22.85
2022-11-05T07:49:25.973Z,23.92
2022-11-05T07:50:30.335Z,23.35
2022-11-05T07:51:31.877Z,24.95
2022-11-05T07:52:34.522Z,22.25
2022-11-05T07:53:38.710Z,22.52
2022-11-05T07:54:43.534Z,24.67
2022-11-05T07:55:46.708Z,22.38
2022-11-05T07:56:50.499Z,20.42
2022-11-05T07:57:52.062Z,29.52
2022-11-05T07:58:54.578Z,25.48
2022-11-05T07:59:56.126Z,23.77
2022-11-05T08:00:58.802Z,20.10
2022-11-05T08:02:00.677Z,23.15
2022-11-05T08:03:08.142Z,22.95
2022-11-05T08:04:10.374Z,23.13
2022-11-05T08:05:12.900Z,21.90
2022-11-05T08:06:15.362Z,23.25
2022-11-05T08:07:16.873Z,20.27
2022-11-05T08:08:21.407Z,19.52
2022-11-05T08:09:22.951Z,28.80
2022-11-05T08:10:25.986Z,23.73
2022-11-05T08:11:28.536Z,20.58
2022-11-05T08:12:31.573Z,23.08
2022-11-05T08:13:34.183Z,25.33
2022-11-05T08:14:35.697Z,24.08
2022-11-05T08:15:38.363Z,22.23
2022-11-05T08:16:39.844Z,30.83
2022-11-05T08:17:42.711Z,24.20
2022-11-05T08:18:45.692Z,27.27
2022-11-05T08:19:47.208Z,23.83
2022-11-05T08:20:49.744Z,27.42
2022-11-05T08:21:51.267Z,26.65
2022-11-05T08:22:54.263Z,24.08
2022-11-05T08:23:55.916Z,22.35
2022-11-05T08:25:01.474Z,20.10
2022-11-05T08:26:07.134Z,24.42
2022-11-05T08:27:09.659Z,18.15
2022-11-05T08:28:13.084Z,21.35
2022-11-05T08:29:15.651Z,24.20
2022-11-05T08:30:17.332Z,19.35
2022-11-05T08:31:19.857Z,21.60
2022-11-05T08:32:21.341Z,19.70
2022-11-05T08:33:25.448Z,21.58
2022-11-05T08:34:26.946Z,24.70
2022-11-05T08:35:30.573Z,20.88
2022-11-05T08:36:32.081Z,20.48
2022-11-05T08:37:34.622Z,18.83
2022-11-05T08:38:36.190Z,17.08
2022-11-05T08:39:38.671Z,24.40
2022-11-05T08:40:41.208Z,25.77
2022-11-05T08:41:43.687Z,18.05
2022-11-05T08:42:45.267Z,18.70
2022-11-05T08:43:49.062Z,20.40
2022-11-05T08:44:50.606Z,23.20
2022-11-05T08:45:54.883Z,22.73
2022-11-05T08:46:56.448Z,18.00
2022-11-05T08:48:02.403Z,20.48
2022-11-05T08:49:05.168Z,20.10
2022-11-05T08:50:08.431Z,23.70
2022-11-05T08:51:10.966Z,29.30
2022-11-05T08:52:12.534Z,22.23
2022-11-05T08:53:16.305Z,20.73
2022-11-05T08:54:18.848Z,23.73
2022-11-05T08:55:20.779Z,19.35
2022-11-05T08:56:24.000Z,23.38
2022-11-05T08:57:25.515Z,26.05
2022-11-05T08:58:28.048Z,22.38
2022-11-05T08:59:31.381Z,21.15
2022-11-05T09:00:35.981Z,20.15
2022-11-05T09:01:38.621Z,16.20
2022-11-05T09:02:40.508Z,18.55
2022-11-05T09:03:43.072Z,16.98
2022-11-05T09:04:44.727Z,22.60
2022-11-05T09:05:47.442Z,18.75
2022-11-05T09:06:49.979Z,26.73
2022-11-05T09:07:53.184Z,21.40
2022-11-05T09:08:59.105Z,23.30
2022-11-05T09:10:10.042Z,21.13
2022-11-05T09:11:12.842Z,16.20
2022-11-05T09:12:14.430Z,23.25
2022-11-05T09:13:19.868Z,16.77
2022-11-05T09:14:22.898Z,23.00
2022-11-05T09:15:26.020Z,18.40
2022-11-05T09:16:28.527Z,19.95
2022-11-05T09:17:30.108Z,26.23
2022-11-05T09:18:32.673Z,23.55
2022-11-05T09:19:39.367Z,23.67
2022-11-05T09:20:42.825Z,22.50
2022-11-05T09:21:45.658Z,18.33
2022-11-05T09:22:47.398Z,25.10
2022-11-05T09:23:49.973Z,17.13
2022-11-05T09:24:51.473Z,19.60
2022-11-05T09:25:53.998Z,23.92
2022-11-05T09:26:55.649Z,19.58
2022-11-05T09:28:07.771Z,25.88
2022-11-05T09:29:14.063Z,18.15
2022-11-05T09:30:17.344Z,16.13
2022-11-05T09:31:20.371Z,18.65
2022-11-05T09:32:23.155Z,18.10
2022-11-05T09:33:26.827Z,20.85
2022-11-05T09:34:29.334Z,19.15
2022-11-05T09:35:30.911Z,19.17
2022-11-05T09:36:33.417Z,21.80
2022-11-05T09:37:36.068Z,18.90
2022-11-05T09:38:38.564Z,17.17
2022-11-05T09:39:40.137Z,19.88
2022-11-05T09:40:48.937Z,22.85
2022-11-05T09:41:53.910Z,17.40
2022-11-05T09:42:55.476Z,22.80
2022-11-05T09:44:03.151Z,18.35
2022-11-05T09:45:09.929Z,21.92
2022-11-05T09:46:19.247Z,17.13
2022-11-05T09:47:25.989Z,16.25
2022-11-05T09:48:31.706Z,17.67
2022-11-05T09:49:39.813Z,21.65
2022-11-05T09:50:46.325Z,16.88
2022-11-05T09:51:47.872Z,14.77
2022-11-05T09:52:50.397Z,30.08
2022-11-05T09:53:53.538Z,16.85
2022-11-05T09:54:56.676Z,18.58
2022-11-05T09:56:01.746Z,18.40
2022-11-05T09:57:05.520Z,20.38
2022-11-05T09:58:16.296Z,13.60
2022-11-05T09:59:22.426Z,19.05
2022-11-05T10:00:27.318Z,15.10
2022-11-05T10:01:32.941Z,17.23
2022-11-05T10:02:43.445Z,12.95
2022-11-05T10:03:48.847Z,14.88
2022-11-05T10:04:56.758Z,19.38
2022-11-05T10:06:07.375Z,18.65
2022-11-05T10:07:15.319Z,14.50
2022-11-05T10:08:23.249Z,13.80
2022-11-05T10:09:29.749Z,15.93
2022-11-05T10:10:41.089Z,13.98
2022-11-05T10:11:48.730Z,14.95
2022-11-05T10:12:55.119Z,16.25
2022-11-05T10:14:02.816Z,23.63
2022-11-05T10:15:13.446Z,18.95
2022-11-05T10:16:23.373Z,12.90
2022-11-05T10:17:27.710Z,17.58
2022-11-05T10:18:35.417Z,12.02
2022-11-05T10:19:44.329Z,17.92
2022-11-05T10:20:46.372Z,14.38
2022-11-05T10:22:06.181Z,11.10
2022-11-05T10:23:13.750Z,10.00
2022-11-05T10:24:18.886Z,12.52
2022-11-05T10:25:22.564Z,9.50
2022-11-05T10:26:27.779Z,11.52
2022-11-05T10:27:32.848Z,15.90
2022-11-05T10:28:36.076Z,14.77
2022-11-05T10:29:37.878Z,11.35
2022-11-05T10:30:40.577Z,11.48
2022-11-05T10:31:44.205Z,10.45
2022-11-05T10:32:47.123Z,11.30
2022-11-05T10:33:53.034Z,15.55
2022-11-05T10:34:57.467Z,10.38
2022-11-05T10:36:05.463Z,10.35
2022-11-05T10:37:07.126Z,11.98
2022-11-05T10:38:14.549Z,15.35
2022-11-05T10:39:18.887Z,12.30
2022-11-05T10:40:32.997Z,12.45
2022-11-05T10:41:52.516Z,16.55
2022-11-05T10:43:02.344Z,13.05
2022-11-05T10:44:23.576Z,13.32
2022-11-05T10:45:35.324Z,12.25
2022-11-05T10:46:47.109Z,12.10
2022-11-05T10:48:02.965Z,16.83
2022-11-05T10:49:18.759Z,11.25
2022-11-05T10:50:24.102Z,16.25
2022-11-05T10:51:27.347Z,12.75
2022-11-05T10:52:33.005Z,11.85
2022-11-05T10:53:38.370Z,13.75
2022-11-05T10:54:40.271Z,11.93
2022-11-05T10:55:45.539Z,11.77
2022-11-05T10:56:48.449Z,13.93
2022-11-05T10:57:51.779Z,10.00
2022-11-05T10:58:55.904Z,11.82
2022-11-05T11:00:25.110Z,11.02
2022-11-05T11:01:28.460Z,12.00
2022-11-05T11:02:30.721Z,13.55
2022-11-05T11:03:38.602Z,13.55
2022-11-05T11:04:42.760Z,11.18
2022-11-05T11:05:44.357Z,10.32
2022-11-05T11:06:51.772Z,13.48
2022-11-05T11:07:56.315Z,11.80
2022-11-05T11:09:07.439Z,11.00
2022-11-05T11:10:20.270Z,12.48
2022-11-05T11:11:29.197Z,13.52
2022-11-05T11:12:40.843Z,13.23
2022-11-05T11:13:52.400Z,12.18
2022-11-05T11:15:01.309Z,10.07
2022-11-05T11:16:16.089Z,9.13
2022-11-05T11:17:27.663Z,9.15
2022-11-05T11:18:35.966Z,14.95
2022-11-05T11:19:43.908Z,12.73
2022-11-05T11:20:45.730Z,11.93
2022-11-05T11:22:11.981Z,9.15
2022-11-05T11:23:16.084Z,9.55
2022-11-05T11:24:23.065Z,13.55
2022-11-05T11:25:26.451Z,9.70
2022-11-05T11:26:32.143Z,12.35
2022-11-05T11:27:34.898Z,9.23
2022-11-05T11:28:40.787Z,10.10
2022-11-05T11:29:49.118Z,6.90
2022-11-05T11:31:05.719Z,6.60
2022-11-05T11:32:13.218Z,9.65
2022-11-05T11:33:22.050Z,12.63
2022-11-05T11:34:29.819Z,12.07
2022-11-05T11:35:36.772Z,10.95
2022-11-05T11:36:44.593Z,11.85
2022-11-05T11:37:46.731Z,7.60
2022-11-05T11:38:49.288Z,7.32
2022-11-05T11:39:54.681Z,11.15
2022-11-05T11:41:03.617Z,6.05
2022-11-05T11:42:13.833Z,7.88
2022-11-05T11:43:26.830Z,6.95
2022-11-05T11:44:34.370Z,4.80
2022-11-05T11:45:45.198Z,11.95
2022-11-05T11:46:49.244Z,10.27
2022-11-05T11:47:51.953Z,7.53
2022-11-05T11:48:53.632Z,8.75
2022-11-05T11:49:58.007Z,13.57
2022-11-05T11:51:19.827Z,7.80
2022-11-05T11:52:28.950Z,5.47
2022-11-05T11:53:36.856Z,11.75
2022-11-05T11:54:38.722Z,7.35
2022-11-05T11:55:41.237Z,10.43
2022-11-05T11:56:45.391Z,9.02
2022-11-05T11:57:49.617Z,13.02
2022-11-05T11:58:54.099Z,7.55
2022-11-05T12:00:14.623Z,9.07
2022-11-05T12:02:00.998Z,9.48
2022-11-05T12:03:13.611Z,9.40
2022-11-05T12:04:28.788Z,5.60
2022-11-05T12:05:40.796Z,13.95
2022-11-05T12:06:51.304Z,8.13
2022-11-05T12:07:54.844Z,6.45
2022-11-05T12:09:07.130Z,4.40
2022-11-05T12:10:25.360Z,17.05
2022-11-05T12:11:34.147Z,8.15
2022-11-05T12:12:43.969Z,11.82
2022-11-05T12:14:00.168Z,11.10
2022-11-05T12:15:10.647Z,10.25
2022-11-05T12:16:21.852Z,7.30
2022-11-05T12:17:35.615Z,10.90
2022-11-05T12:18:44.603Z,7.75
2022-11-05T12:20:03.427Z,9.55
2022-11-05T12:21:07.507Z,18.73
2022-11-05T12:22:24.504Z,11.80
2022-11-05T12:23:44.628Z,6.00
2022-11-05T12:25:22.133Z,13.00
2022-11-05T12:26:35.584Z,7.55
2022-11-05T12:27:53.288Z,8.48
2022-11-05T12:29:18.869Z,7.22
2022-11-05T12:30:22.997Z,6.40
2022-11-05T12:31:34.926Z,8.95
2022-11-05T12:32:48.825Z,8.65
2022-11-05T12:34:04.014Z,9.88
2022-11-05T12:35:19.814Z,8.35
2022-11-05T12:36:33.637Z,7.22
2022-11-05T12:37:47.108Z,8.52
2022-11-05T12:39:09.268Z,10.57
2022-11-05T12:40:32.657Z,7.03
2022-11-05T12:41:42.218Z,6.13
2022-11-05T12:43:00.489Z,9.20
2022-11-05T12:44:20.581Z,6.85
2022-11-05T12:45:45.830Z,9.30
2022-11-05T12:46:58.638Z,8.63
2022-11-05T12:48:16.027Z,7.72
2022-11-05T12:49:46.144Z,9.65
2022-11-05T12:50:54.690Z,8.30
2022-11-05T12:52:11.532Z,6.15
2022-11-05T12:53:40.721Z,12.38
2022-11-05T12:54:55.945Z,7.80
2022-11-05T12:56:01.393Z,6.55
2022-11-05T12:57:05.082Z,4.85
2022-11-05T12:58:11.714Z,12.23
2022-11-05T12:59:22.372Z,4.85
2022-11-05T13:01:20.726Z,14.18
2022-11-05T13:02:29.853Z,8.57
2022-11-05T13:03:42.082Z,9.57
2022-11-05T13:04:48.881Z,19.35
2022-11-05T13:05:54.939Z,6.70
2022-11-05T13:07:00.607Z,8.35
2022-11-05T13:08:10.168Z,8.30
2022-11-05T13:09:21.977Z,8.73
2022-11-05T13:10:34.266Z,7.82
2022-11-05T13:11:41.555Z,8.10
2022-11-05T13:12:46.674Z,8.00
2022-11-05T13:14:04.938Z,10.57
2022-11-05T13:15:16.292Z,11.52
2022-11-05T13:16:26.762Z,10.27
2022-11-05T13:17:35.431Z,6.47
2022-11-05T13:18:47.783Z,6.68
2022-11-05T13:19:55.466Z,10.02
2022-11-05T13:20:58.634Z,9.73
2022-11-05T13:22:07.852Z,7.43
2022-11-05T13:23:18.466Z,7.18
2022-11-05T13:24:26.183Z,4.63
2022-11-05T13:25:29.925Z,5.95
2022-11-05T13:26:39.507Z,6.68
2022-11-05T13:27:48.696Z,5.60
2022-11-05T13:28:58.164Z,8.23
2022-11-05T13:30:03.191Z,6.22
2022-11-05T13:31:14.474Z,8.18
2022-11-05T13:32:35.355Z,7.20
2022-11-05T13:33:42.111Z,5.80
2022-11-05T13:34:44.820Z,7.55
2022-11-05T13:36:15.014Z,10.18
2022-11-05T13:37:41.780Z,6.10
2022-11-05T13:39:02.483Z,6.80
2022-11-05T13:40:10.752Z,6.53
2022-11-05T13:41:26.198Z,6.85
2022-11-05T13:42:48.230Z,11.98
2022-11-05T13:44:09.236Z,12.77
2022-11-05T13:45:49.132Z,11.93
2022-11-05T13:47:13.922Z,13.98
2022-11-05T13:48:44.244Z,9.73
2022-11-05T13:50:17.982Z,7.97
2022-11-05T13:51:47.320Z,12.32
2022-11-05T13:53:09.980Z,11.98
2022-11-05T13:54:54.264Z,15.18
2022-11-05T13:56:04.794Z,12.32
2022-11-05T13:57:28.644Z,9.77
2022-11-05T13:59:04.323Z,5.63
2022-11-05T14:00:13.578Z,7.28
2022-11-05T14:01:31.043Z,7.40
2022-11-05T14:02:38.679Z,8.93
2022-11-05T14:03:47.430Z,6.05
2022-11-05T14:04:54.478Z,7.22
2022-11-05T14:06:04.181Z,7.80
2022-11-05T14:07:09.631Z,6.20
2022-11-05T14:08:17.181Z,10.15
2022-11-05T14:09:24.572Z,8.18
2022-11-05T14:10:35.025Z,6.18
2022-11-05T14:11:43.334Z,5.95
2022-11-05T14:12:50.693Z,4.75
2022-11-05T14:13:57.654Z,8.40
2022-11-05T14:15:04.741Z,8.00
2022-11-05T14:16:09.482Z,8.07
2022-11-05T14:17:16.289Z,4.40
2022-11-05T14:18:37.049Z,5.95
2022-11-05T14:19:51.806Z,8.82
2022-11-05T14:21:00.034Z,8.90
2022-11-05T14:22:30.059Z,8.82
2022-11-05T14:23:41.022Z,3.95
2022-11-05T14:24:45.637Z,5.40
2022-11-05T14:25:57.482Z,12.65
2022-11-05T14:27:43.344Z,5.05
2022-11-05T14:28:50.927Z,7.90
2022-11-05T14:29:52.450Z,5.70
2022-11-05T14:30:55.121Z,13.88